Time;durP1;ratioP1;P1;durP2;ratioP2;P2;SDS_P1;SDS_P2;PMS_P1;PMS_P2;Temp;Humidity;BMP_temperature;BMP_pressure;BME280_temperature;BME280_humidity;BME280_pressure;Samples;Min_cycle;Max_cycle;Signal;HPM_P1;HPM_P2
2021/07/20 00:00:40;;;;;;;25.33;14.60;;;22.50;95.80;;;;;;5007433;28;20200;-77
2021/07/20 00:03:10;;;;;;;17.00;13.90;;;22.50;95.90;;;;;;5024776;28;20191;-77
2021/07/20 00:05:38;;;;;;;18.80;14.60;;;22.50;96.20;;;;;;5024954;28;20213;-77
2021/07/20 00:08:05;;;;;;;18.57;13.80;;;22.50;96.40;;;;;;5024424;28;20887;-78
2021/07/20 00:10:42;;;;;;;18.17;14.40;;;22.60;96.60;;;;;;5019871;28;20470;-77
2021/07/20 00:13:08;;;;;;;19.17;14.23;;;22.80;96.10;;;;;;5022091;28;20502;-79
2021/07/20 00:15:35;;;;;;;18.67;14.30;;;22.70;96.30;;;;;;5022449;28;20550;-77
2021/07/20 00:18:09;;;;;;;16.83;12.73;;;22.80;96.30;;;;;;5021448;28;20189;-78
2021/07/20 00:20:36;;;;;;;16.23;13.50;;;22.70;96.40;;;;;;5020228;28;20523;-78
2021/07/20 00:23:02;;;;;;;18.10;13.70;;;22.50;96.60;;;;;;5018912;28;20428;-76
2021/07/20 00:25:28;;;;;;;16.77;12.10;;;22.20;97.00;;;;;;5023044;28;20467;-76
2021/07/20 00:27:55;;;;;;;17.10;13.80;;;22.20;97.20;;;;;;5007509;28;20521;-78
2021/07/20 00:30:21;;;;;;;18.80;14.20;;;22.20;97.80;;;;;;5021529;28;20238;-78
2021/07/20 00:32:47;;;;;;;17.40;13.27;;;22.30;97.40;;;;;;5001271;28;20448;-78
2021/07/20 00:35:13;;;;;;;17.93;14.20;;;22.30;97.30;;;;;;5020867;28;20481;-77
2021/07/20 00:37:40;;;;;;;17.60;14.57;;;22.00;96.90;;;;;;5023194;28;20742;-77
2021/07/20 00:40:08;;;;;;;18.10;13.67;;;22.20;97.50;;;;;;5017420;28;20443;-75
2021/07/20 00:42:35;;;;;;;17.40;13.67;;;22.30;97.50;;;;;;5023409;28;20450;-77
2021/07/20 00:45:00;;;;;;;20.77;13.20;;;22.30;97.10;;;;;;5020168;28;21214;-77
2021/07/20 00:47:26;;;;;;;18.80;13.97;;;22.30;97.30;;;;;;5000630;28;20584;-75
2021/07/20 00:49:52;;;;;;;15.30;13.20;;;22.30;97.10;;;;;;5022833;28;20633;-77
2021/07/20 00:52:17;;;;;;;16.60;12.80;;;22.30;97.10;;;;;;5005688;28;20689;-79
2021/07/20 00:54:43;;;;;;;16.67;12.53;;;22.20;97.30;;;;;;5019464;28;20566;-75
2021/07/20 00:57:10;;;;;;;17.60;13.17;;;22.20;97.20;;;;;;5021603;28;20298;-77
2021/07/20 00:59:37;;;;;;;19.10;14.37;;;22.10;97.40;;;;;;5026095;28;20226;-77
2021/07/20 01:02:04;;;;;;;18.20;13.67;;;22.00;98.10;;;;;;5018391;28;20454;-77
2021/07/20 01:04:29;;;;;;;19.37;13.17;;;22.00;98.10;;;;;;5021219;28;20475;-76
2021/07/20 01:06:57;;;;;;;16.13;13.27;;;22.10;98.10;;;;;;5020489;28;20505;-77
2021/07/20 01:09:25;;;;;;;16.80;12.70;;;22.20;98.20;;;;;;5023859;28;20188;-77
2021/07/20 01:11:52;;;;;;;16.00;12.93;;;22.20;98.50;;;;;;5011766;28;20519;-76
2021/07/20 01:14:18;;;;;;;20.53;13.37;;;22.10;99.00;;;;;;5008297;28;21794;-74
2021/07/20 01:16:45;;;;;;;17.70;13.30;;;22.20;98.80;;;;;;5008747;28;20443;-75
2021/07/20 01:19:14;;;;;;;18.17;13.50;;;22.20;98.80;;;;;;5020800;28;20454;-77
2021/07/20 01:21:41;;;;;;;16.43;13.10;;;22.00;99.50;;;;;;5004798;28;20819;-77
2021/07/20 01:24:09;;;;;;;17.30;13.93;;;21.90;99.30;;;;;;5038627;28;20462;-74
2021/07/20 01:26:36;;;;;;;17.37;13.77;;;22.00;99.50;;;;;;5044670;28;20438;-75
2021/07/20 01:29:05;;;;;;;18.83;13.47;;;21.70;99.90;;;;;;5040414;28;20445;-75
2021/07/20 01:31:34;;;;;;;17.17;14.47;;;21.60;99.90;;;;;;5035726;28;20451;-75
2021/07/20 01:34:00;;;;;;;18.57;13.73;;;21.80;99.90;;;;;;5021383;28;20478;-77
2021/07/20 01:36:28;;;;;;;19.40;14.50;;;21.60;99.90;;;;;;5021040;28;20447;-77
2021/07/20 01:38:56;;;;;;;16.43;13.33;;;21.70;99.90;;;;;;5023628;28;20443;-78
2021/07/20 01:41:22;;;;;;;22.57;13.70;;;21.80;99.90;;;;;;5020489;28;20446;-76
2021/07/20 01:43:54;;;;;;;16.83;11.97;;;21.80;99.90;;;;;;5019366;28;20516;-75
2021/07/20 01:46:21;;;;;;;20.50;13.90;;;21.50;99.90;;;;;;5019542;28;20866;-78
2021/07/20 01:48:50;;;;;;;17.03;13.97;;;21.70;99.90;;;;;;5024417;28;20824;-77
2021/07/20 01:51:17;;;;;;;16.93;13.53;;;21.80;99.90;;;;;;5021621;28;20888;-75
2021/07/20 01:53:42;;;;;;;16.27;13.47;;;21.90;99.90;;;;;;5001396;28;20467;-77
2021/07/20 01:56:10;;;;;;;18.30;12.83;;;21.80;99.90;;;;;;5019577;28;20450;-75
2021/07/20 01:58:41;;;;;;;23.03;14.60;;;21.80;99.90;;;;;;5025228;28;20205;-78
2021/07/20 02:01:09;;;;;;;17.00;13.60;;;21.80;99.90;;;;;;5028987;28;20964;-78
2021/07/20 02:09:14;;;;;;;16.47;13.50;;;21.80;99.90;;;;;;5028525;28;20558;-78
2021/07/20 02:11:41;;;;;;;20.80;13.50;;;21.50;99.90;;;;;;5027523;28;20442;-76
2021/07/20 02:14:10;;;;;;;19.33;13.77;;;21.50;99.90;;;;;;5024361;28;20459;-78
2021/07/20 02:16:43;;;;;;;18.57;14.03;;;21.60;99.90;;;;;;5024614;28;20442;-78
2021/07/20 02:19:21;;;;;;;17.00;13.43;;;21.60;99.90;;;;;;5003122;28;20966;-75
2021/07/20 02:21:52;;;;;;;15.50;13.13;;;21.50;99.90;;;;;;5021135;28;20525;-78
2021/07/20 02:24:27;;;;;;;17.90;12.90;;;21.50;99.90;;;;;;5021247;28;20494;-77
2021/07/20 02:26:54;;;;;;;17.23;13.43;;;21.60;99.90;;;;;;5005399;28;20525;-75
2021/07/20 02:29:21;;;;;;;15.03;12.60;;;21.50;99.90;;;;;;5020391;28;20431;-76
2021/07/20 02:31:51;;;;;;;17.13;12.90;;;21.40;99.90;;;;;;5017821;28;21050;-77
2021/07/20 02:34:19;;;;;;;21.60;13.10;;;21.40;99.90;;;;;;5019704;28;20553;-75
2021/07/20 02:36:44;;;;;;;28.97;14.00;;;21.50;99.90;;;;;;5015301;28;20444;-77
2021/07/20 02:39:12;;;;;;;16.10;13.77;;;21.50;99.90;;;;;;5001828;28;20443;-75
2021/07/20 02:41:41;;;;;;;19.23;13.07;;;21.50;99.90;;;;;;5021347;28;20226;-76
2021/07/20 02:44:07;;;;;;;20.47;14.23;;;21.50;99.90;;;;;;5019477;28;20510;-78
2021/07/20 02:46:35;;;;;;;17.70;13.23;;;21.30;99.90;;;;;;5017382;28;20435;-76
2021/07/20 02:49:02;;;;;;;15.77;12.80;;;21.40;99.90;;;;;;5017536;28;20493;-77
2021/07/20 02:51:29;;;;;;;18.97;13.20;;;21.50;99.90;;;;;;5021566;28;20463;-75
2021/07/20 02:53:58;;;;;;;18.63;13.30;;;21.50;99.90;;;;;;5019468;28;21163;-78
2021/07/20 02:56:25;;;;;;;18.50;13.70;;;21.60;99.90;;;;;;5016532;28;20467;-76
2021/07/20 02:58:53;;;;;;;17.87;13.70;;;21.50;99.90;;;;;;5019843;28;20819;-76
2021/07/20 03:01:20;;;;;;;18.87;13.73;;;21.40;99.90;;;;;;5026983;28;20461;-77
2021/07/20 03:03:46;;;;;;;20.53;12.63;;;21.30;99.90;;;;;;5024215;28;20470;-77
2021/07/20 03:06:13;;;;;;;18.00;14.50;;;21.20;99.90;;;;;;5025265;28;20491;-77
2021/07/20 03:08:41;;;;;;;17.77;13.53;;;21.00;99.90;;;;;;5023395;28;20173;-77
2021/07/20 03:11:12;;;;;;;21.47;15.37;;;21.20;99.90;;;;;;5024006;28;20461;-78
2021/07/20 03:13:44;;;;;;;17.07;13.67;;;21.30;99.90;;;;;;5022745;28;20555;-77
2021/07/20 03:16:10;;;;;;;16.90;13.20;;;21.30;99.90;;;;;;5026002;28;20443;-76
2021/07/20 03:18:39;;;;;;;18.60;13.40;;;21.00;99.90;;;;;;5018765;28;20448;-76
2021/07/20 03:21:06;;;;;;;19.60;13.73;;;21.00;99.90;;;;;;5019975;28;20457;-75
2021/07/20 03:23:33;;;;;;;18.17;13.10;;;21.00;99.90;;;;;;5019263;28;20452;-76
2021/07/20 03:26:01;;;;;;;18.93;13.93;;;21.00;99.90;;;;;;5019108;28;20463;-77
2021/07/20 03:28:28;;;;;;;20.13;13.17;;;20.90;99.90;;;;;;5018077;28;20454;-75
2021/07/20 03:30:55;;;;;;;18.17;13.40;;;20.90;99.90;;;;;;5020311;28;20589;-77
2021/07/20 03:33:23;;;;;;;17.27;14.20;;;20.90;99.90;;;;;;5000433;28;20448;-76
2021/07/20 03:35:50;;;;;;;14.27;11.90;;;20.90;99.90;;;;;;5000863;28;20451;-76
2021/07/20 03:38:18;;;;;;;17.20;14.30;;;20.90;99.90;;;;;;5020791;28;20481;-77
2021/07/20 03:40:46;;;;;;;15.67;12.87;;;21.00;99.90;;;;;;5020587;28;20454;-77
2021/07/20 03:43:12;;;;;;;17.67;13.80;;;20.90;99.90;;;;;;5021093;28;20520;-77
2021/07/20 03:45:39;;;;;;;20.10;14.03;;;20.90;99.90;;;;;;5019761;28;20470;-76
2021/07/20 03:48:05;;;;;;;27.67;16.10;;;20.90;99.90;;;;;;5021089;28;20435;-78
2021/07/20 03:50:31;;;;;;;17.03;13.17;;;20.90;99.90;;;;;;5015328;28;20811;-77
2021/07/20 03:52:58;;;;;;;19.33;14.20;;;20.90;99.90;;;;;;5016850;28;20443;-76
2021/07/20 03:55:27;;;;;;;17.27;13.33;;;21.00;99.90;;;;;;5019050;28;20462;-77
2021/07/20 03:57:53;;;;;;;20.73;14.37;;;21.00;99.90;;;;;;5001287;28;20450;-77
2021/07/20 04:00:20;;;;;;;17.87;14.43;;;20.90;99.90;;;;;;5007224;28;20443;-76
2021/07/20 04:03:21;;;;;;;22.70;15.10;;;20.80;99.90;;;;;;5009775;28;20192;-77
2021/07/20 04:05:45;;;;;;;18.40;13.60;;;20.70;99.90;;;;;;5024237;28;20474;-75
2021/07/20 04:08:15;;;;;;;22.00;14.30;;;20.80;99.90;;;;;;5001165;28;20450;-76
2021/07/20 04:10:42;;;;;;;18.27;14.93;;;20.70;99.90;;;;;;5022705;28;20439;-76
2021/07/20 04:13:11;;;;;;;18.07;13.43;;;20.60;99.90;;;;;;5022118;28;20512;-77
2021/07/20 04:15:47;;;;;;;17.87;13.70;;;20.70;99.90;;;;;;4999529;28;20513;-77
2021/07/20 04:18:13;;;;;;;18.53;13.73;;;20.60;99.90;;;;;;5021375;28;20557;-78
2021/07/20 04:20:40;;;;;;;18.20;13.60;;;20.60;99.90;;;;;;5026194;28;21037;-78
2021/07/20 04:23:07;;;;;;;20.07;14.13;;;20.30;99.90;;;;;;5022697;28;20450;-76
2021/07/20 04:25:36;;;;;;;16.17;12.20;;;20.10;99.90;;;;;;5018355;28;20477;-77
2021/07/20 04:28:03;;;;;;;19.27;13.67;;;20.30;99.90;;;;;;5017852;28;20439;-78
2021/07/20 04:30:29;;;;;;;19.00;14.93;;;20.30;99.90;;;;;;5022731;28;20523;-76
2021/07/20 04:32:56;;;;;;;22.20;14.43;;;20.20;99.90;;;;;;5022639;28;20520;-76
2021/07/20 04:35:23;;;;;;;17.37;13.53;;;20.40;99.90;;;;;;5001673;28;20463;-77
2021/07/20 04:37:51;;;;;;;18.10;13.33;;;20.10;99.90;;;;;;5003680;28;20479;-76
2021/07/20 04:40:17;;;;;;;18.73;13.70;;;20.00;99.90;;;;;;5020459;28;20597;-74
2021/07/20 04:42:43;;;;;;;19.10;13.20;;;20.10;99.90;;;;;;5001659;28;21242;-77
2021/07/20 04:45:10;;;;;;;16.90;13.30;;;20.20;99.90;;;;;;5019987;28;20216;-77
2021/07/20 04:47:37;;;;;;;19.83;13.57;;;20.00;99.90;;;;;;5004892;28;20961;-77
2021/07/20 04:50:08;;;;;;;18.70;14.03;;;20.10;99.90;;;;;;5019533;28;21180;-76
2021/07/20 04:52:35;;;;;;;19.40;14.70;;;20.10;99.90;;;;;;5022768;28;20451;-76
2021/07/20 04:55:03;;;;;;;21.27;13.80;;;20.20;99.90;;;;;;5000994;28;21009;-77
2021/07/20 04:57:30;;;;;;;20.90;13.97;;;20.30;99.90;;;;;;5017005;28;20550;-75
2021/07/20 04:59:56;;;;;;;19.60;12.80;;;20.30;99.90;;;;;;5019963;28;20805;-74
2021/07/20 05:02:24;;;;;;;17.57;12.37;;;20.30;99.90;;;;;;5016594;28;20451;-75
2021/07/20 05:04:50;;;;;;;20.03;14.13;;;20.40;99.90;;;;;;5000084;28;20470;-77
2021/07/20 05:07:17;;;;;;;17.37;12.23;;;20.30;99.90;;;;;;5019979;28;20494;-77
2021/07/20 05:09:44;;;;;;;17.70;13.67;;;20.50;99.90;;;;;;5020370;28;20434;-73
2021/07/20 05:12:15;;;;;;;21.07;14.43;;;20.60;99.90;;;;;;5012556;28;20478;-73
2021/07/20 05:14:41;;;;;;;16.57;12.50;;;20.60;99.90;;;;;;5017794;28;20899;-73
2021/07/20 05:17:09;;;;;;;17.60;13.60;;;20.60;99.90;;;;;;5018436;28;20488;-75
2021/07/20 05:19:35;;;;;;;17.93;13.30;;;20.70;99.90;;;;;;5016162;28;20482;-73
2021/07/20 05:22:03;;;;;;;19.57;13.20;;;20.70;99.90;;;;;;5018557;28;20892;-75
2021/07/20 05:24:31;;;;;;;18.30;14.60;;;20.80;99.90;;;;;;5016167;28;21013;-73
2021/07/20 05:26:59;;;;;;;18.20;13.37;;;20.80;99.90;;;;;;5020242;28;20450;-73
2021/07/20 05:29:25;;;;;;;21.43;14.00;;;20.50;99.90;;;;;;5018815;28;20493;-74
2021/07/20 05:31:52;;;;;;;18.70;13.00;;;20.60;99.90;;;;;;5021554;28;20610;-73
2021/07/20 05:34:19;;;;;;;19.00;13.10;;;20.40;99.90;;;;;;5021251;28;20467;-72
2021/07/20 05:36:46;;;;;;;18.90;12.87;;;20.50;99.90;;;;;;5021599;28;21632;-73
2021/07/20 05:39:12;;;;;;;14.90;11.93;;;20.60;99.90;;;;;;5019759;28;20815;-73
2021/07/20 05:41:43;;;;;;;15.97;12.13;;;20.70;99.90;;;;;;5021652;28;20483;-73
2021/07/20 05:44:14;;;;;;;19.30;13.40;;;20.70;99.90;;;;;;5021667;28;20472;-74
2021/07/20 05:46:41;;;;;;;22.00;14.40;;;20.70;99.90;;;;;;5020513;28;20470;-73
2021/07/20 05:49:07;;;;;;;16.60;12.43;;;20.70;99.90;;;;;;5020309;28;20457;-74
2021/07/20 05:51:37;;;;;;;16.53;12.90;;;20.70;99.90;;;;;;5021693;28;20444;-74
2021/07/20 05:54:03;;;;;;;16.77;11.73;;;20.80;99.90;;;;;;5020093;28;20516;-73
2021/07/20 05:56:31;;;;;;;17.93;13.70;;;20.80;99.90;;;;;;5018622;28;20439;-75
2021/07/20 05:59:00;;;;;;;19.57;13.63;;;20.80;99.90;;;;;;5020935;28;20438;-74
2021/07/20 06:01:30;;;;;;;17.63;12.73;;;20.70;99.90;;;;;;5021555;28;20447;-73
2021/07/20 06:03:57;;;;;;;20.77;14.37;;;20.60;99.90;;;;;;5021246;28;20459;-73
2021/07/20 06:06:30;;;;;;;18.37;11.97;;;20.70;99.90;;;;;;5019036;28;20487;-73
2021/07/20 06:08:59;;;;;;;17.60;12.70;;;20.60;99.90;;;;;;5019027;28;20439;-73
2021/07/20 06:11:27;;;;;;;16.70;12.50;;;20.60;99.90;;;;;;5017443;28;20455;-74
2021/07/20 06:13:53;;;;;;;22.63;13.50;;;20.60;99.90;;;;;;5016391;28;20455;-74
2021/07/20 06:16:23;;;;;;;20.20;14.70;;;20.60;99.90;;;;;;5020639;28;20455;-74
2021/07/20 06:18:49;;;;;;;23.00;14.70;;;20.70;99.90;;;;;;5023380;28;20435;-73
2021/07/20 06:21:20;;;;;;;21.13;16.60;;;20.70;99.90;;;;;;5021880;28;20449;-76
2021/07/20 06:23:48;;;;;;;17.10;13.37;;;20.70;99.90;;;;;;5023150;28;20475;-75
2021/07/20 06:26:25;;;;;;;19.30;13.70;;;20.50;99.90;;;;;;5018522;28;20517;-73
2021/07/20 06:28:59;;;;;;;16.37;13.40;;;20.60;99.90;;;;;;5020657;28;20531;-73
2021/07/20 06:31:25;;;;;;;16.20;12.90;;;20.60;99.90;;;;;;5022168;28;20528;-76
2021/07/20 06:33:54;;;;;;;17.57;12.83;;;20.50;99.90;;;;;;5024459;28;20578;-73
2021/07/20 06:36:21;;;;;;;17.63;12.77;;;20.40;99.90;;;;;;5023179;28;20432;-74
2021/07/20 06:38:47;;;;;;;17.60;12.63;;;20.60;99.90;;;;;;5023959;28;20443;-74
2021/07/20 06:41:13;;;;;;;21.20;13.50;;;20.60;99.90;;;;;;5023527;28;20431;-74
2021/07/20 06:43:40;;;;;;;17.40;11.80;;;20.70;99.90;;;;;;5023232;28;20905;-75
2021/07/20 06:46:08;;;;;;;17.40;12.00;;;20.70;99.90;;;;;;5023470;28;20661;-76
2021/07/20 06:48:38;;;;;;;17.20;12.27;;;20.70;99.90;;;;;;5024431;28;20431;-74
2021/07/20 06:51:05;;;;;;;18.57;13.67;;;20.60;99.90;;;;;;5020215;28;20845;-74
2021/07/20 06:53:34;;;;;;;15.70;12.80;;;20.70;99.90;;;;;;5018729;28;20428;-72
2021/07/20 06:56:01;;;;;;;17.23;12.40;;;20.80;99.90;;;;;;5047395;28;20446;-72
2021/07/20 06:58:28;;;;;;;16.13;11.57;;;20.80;99.90;;;;;;5042003;28;20424;-73
2021/07/20 07:00:56;;;;;;;18.10;12.83;;;20.80;99.90;;;;;;5049009;28;20447;-72
2021/07/20 07:03:38;;;;;;;17.20;13.03;;;21.00;99.90;;;;;;5040306;28;20436;-73
2021/07/20 07:06:05;;;;;;;17.97;12.20;;;21.10;99.90;;;;;;5023484;28;20562;-73
2021/07/20 07:08:32;;;;;;;17.90;13.53;;;21.00;99.90;;;;;;5024774;28;20439;-74
2021/07/20 07:11:00;;;;;;;21.23;13.00;;;21.10;99.90;;;;;;5005916;28;20525;-73
2021/07/20 07:13:28;;;;;;;29.37;13.93;;;21.10;99.90;;;;;;5003463;28;20438;-75
2021/07/20 07:15:55;;;;;;;22.23;12.90;;;21.10;99.90;;;;;;5021280;28;20801;-74
2021/07/20 07:18:21;;;;;;;15.13;12.00;;;21.10;99.90;;;;;;5020542;28;21260;-73
2021/07/20 07:20:50;;;;;;;16.43;12.40;;;21.10;99.90;;;;;;5021220;28;20435;-73
2021/07/20 07:23:18;;;;;;;16.30;12.03;;;21.20;99.90;;;;;;5019309;28;20449;-74
2021/07/20 07:25:49;;;;;;;15.83;11.83;;;21.20;99.90;;;;;;5020920;28;20478;-73
2021/07/20 07:28:17;;;;;;;16.23;12.20;;;21.20;99.90;;;;;;5021452;28;20502;-74
2021/07/20 07:30:43;;;;;;;17.50;12.40;;;21.20;99.90;;;;;;5023652;28;20435;-74
2021/07/20 07:33:10;;;;;;;20.87;12.73;;;21.40;99.90;;;;;;5022292;28;21192;-74
2021/07/20 07:35:36;;;;;;;17.50;12.20;;;21.40;99.90;;;;;;5021431;28;20459;-73
2021/07/20 07:38:03;;;;;;;21.00;12.80;;;21.40;99.90;;;;;;5001352;28;21074;-73
2021/07/20 07:40:30;;;;;;;17.80;12.80;;;21.30;99.90;;;;;;5023733;28;20431;-73
2021/07/20 07:42:58;;;;;;;13.70;11.50;;;21.40;99.90;;;;;;5022023;28;20454;-73
2021/07/20 07:45:25;;;;;;;18.73;12.30;;;21.50;99.90;;;;;;5003955;28;20476;-76
2021/07/20 07:47:52;;;;;;;14.63;11.57;;;21.50;99.90;;;;;;5022012;28;20424;-72
2021/07/20 07:50:18;;;;;;;14.33;11.00;;;21.60;99.90;;;;;;5006523;28;20472;-73
2021/07/20 07:52:44;;;;;;;22.07;12.53;;;21.60;99.90;;;;;;5019377;28;20481;-73
2021/07/20 07:55:11;;;;;;;12.90;10.60;;;21.50;99.90;;;;;;5023971;28;20462;-73
2021/07/20 07:57:39;;;;;;;13.90;11.80;;;21.60;99.90;;;;;;5022811;28;20625;-72
2021/07/20 08:00:08;;;;;;;17.97;11.10;;;21.70;99.90;;;;;;5021581;28;21341;-73
2021/07/20 08:02:36;;;;;;;12.63;9.83;;;21.70;99.90;;;;;;5021656;28;20435;-74
2021/07/20 08:05:04;;;;;;;14.57;11.07;;;21.70;99.90;;;;;;5021252;28;20613;-74
2021/07/20 08:07:32;;;;;;;20.10;14.10;;;21.70;99.90;;;;;;5023801;28;21862;-75
2021/07/20 08:09:58;;;;;;;16.40;11.10;;;21.70;99.90;;;;;;5021917;28;20437;-73
2021/07/20 08:12:26;;;;;;;13.10;10.87;;;21.70;99.90;;;;;;5020222;28;20807;-73
2021/07/20 08:14:51;;;;;;;18.77;13.20;;;21.70;99.90;;;;;;5022520;28;20474;-74
2021/07/20 08:17:18;;;;;;;21.03;14.33;;;21.80;99.90;;;;;;5021258;28;21703;-74
2021/07/20 08:19:45;;;;;;;19.97;14.83;;;21.80;99.90;;;;;;5021996;28;20192;-74
2021/07/20 08:22:15;;;;;;;30.07;15.30;;;21.90;99.90;;;;;;5021741;28;20523;-75
2021/07/20 08:24:55;;;;;;;13.07;11.00;;;22.00;99.90;;;;;;5017452;28;20481;-72
2021/07/20 08:27:35;;;;;;;15.57;11.50;;;22.10;99.90;;;;;;5022195;28;20471;-73
2021/07/20 08:30:03;;;;;;;14.50;11.77;;;22.10;99.90;;;;;;5018666;28;20439;-72
2021/07/20 08:32:33;;;;;;;15.40;10.50;;;22.00;99.90;;;;;;5002255;28;20451;-73
2021/07/20 08:35:04;;;;;;;16.37;14.00;;;22.00;99.90;;;;;;5020293;28;20803;-73
2021/07/20 08:37:32;;;;;;;16.83;11.90;;;22.20;99.90;;;;;;5019848;28;20427;-72
2021/07/20 08:40:08;;;;;;;15.10;11.67;;;22.20;99.90;;;;;;5021025;28;20439;-73
2021/07/20 08:42:54;;;;;;;13.90;12.03;;;22.20;99.90;;;;;;5021634;28;20423;-72
2021/07/20 08:45:23;;;;;;;19.17;13.60;;;22.30;99.90;;;;;;5021007;28;20482;-74
2021/07/20 08:48:40;;;;;;;17.97;10.77;;;22.40;99.90;;;;;;5021638;28;20427;-74
2021/07/20 08:51:12;;;;;;;16.17;11.10;;;22.30;99.90;;;;;;4987423;28;20423;-74
2021/07/20 08:53:49;;;;;;;15.27;11.10;;;22.40;99.90;;;;;;5022635;28;20445;-74
2021/07/20 08:56:19;;;;;;;17.20;11.30;;;22.40;99.90;;;;;;5022446;28;20435;-74
2021/07/20 08:58:57;;;;;;;18.80;12.07;;;22.40;99.90;;;;;;5024654;28;20462;-74
2021/07/20 09:01:27;;;;;;;14.47;10.90;;;22.50;99.90;;;;;;5026232;28;20451;-74
2021/07/20 09:04:10;;;;;;;15.90;12.07;;;22.50;99.90;;;;;;5023536;28;20455;-72
2021/07/20 09:06:51;;;;;;;18.37;11.17;;;22.60;99.90;;;;;;5025366;28;20439;-73
2021/07/20 09:09:27;;;;;;;14.13;11.43;;;22.70;99.90;;;;;;5025902;28;20537;-73
2021/07/20 09:11:58;;;;;;;16.50;12.63;;;22.80;99.90;;;;;;5027041;28;20517;-73
2021/07/20 09:14:34;;;;;;;15.10;12.13;;;23.00;99.90;;;;;;5026799;28;20487;-73
2021/07/20 09:17:08;;;;;;;18.43;11.67;;;23.00;99.90;;;;;;5027886;28;20871;-72
2021/07/20 09:19:42;;;;;;;15.27;11.97;;;23.00;99.90;;;;;;5024547;28;20441;-73
2021/07/20 09:22:15;;;;;;;13.90;12.20;;;23.00;99.90;;;;;;5007382;28;21395;-72
2021/07/20 09:25:06;;;;;;;15.73;11.03;;;23.10;99.90;;;;;;5026308;28;20573;-75
2021/07/20 09:27:56;;;;;;;15.50;10.70;;;23.20;99.90;;;;;;5021608;28;20855;-74
2021/07/20 09:30:25;;;;;;;25.23;11.80;;;23.30;99.90;;;;;;5024868;28;20430;-73
2021/07/20 09:33:26;;;;;;;14.93;11.33;;;23.30;99.90;;;;;;5002231;28;20812;-74
2021/07/20 09:36:11;;;;;;;17.40;11.00;;;23.30;99.90;;;;;;5021718;28;20460;-73
2021/07/20 09:38:55;;;;;;;18.20;11.63;;;23.30;99.90;;;;;;5025699;28;20431;-73
2021/07/20 09:41:41;;;;;;;19.33;11.10;;;23.40;99.90;;;;;;5024894;28;20435;-74
2021/07/20 09:44:14;;;;;;;11.33;9.90;;;23.40;99.90;;;;;;5023591;28;20492;-75
2021/07/20 09:46:46;;;;;;;19.03;10.67;;;23.40;99.90;;;;;;5024781;28;20549;-73
2021/07/20 09:49:18;;;;;;;14.77;11.20;;;23.40;99.90;;;;;;5026290;28;20427;-74
2021/07/20 09:52:03;;;;;;;14.40;11.00;;;23.20;99.90;;;;;;5005939;28;20467;-73
2021/07/20 09:54:41;;;;;;;14.57;11.70;;;23.20;99.90;;;;;;5024032;28;20525;-73
2021/07/20 09:57:30;;;;;;;16.53;12.43;;;23.30;99.90;;;;;;5020189;28;20427;-73
2021/07/20 10:00:12;;;;;;;19.57;12.30;;;23.40;99.90;;;;;;5019714;28;20445;-73
2021/07/20 10:02:44;;;;;;;16.43;13.27;;;23.60;99.90;;;;;;5022828;28;20447;-74
2021/07/20 10:05:19;;;;;;;16.30;11.80;;;23.70;99.90;;;;;;5026642;28;20466;-75
2021/07/20 10:07:58;;;;;;;17.20;11.80;;;23.70;99.90;;;;;;5024467;28;21012;-74
2021/07/20 10:10:33;;;;;;;15.70;12.13;;;23.80;99.90;;;;;;5023182;28;20921;-74
2021/07/20 10:13:28;;;;;;;12.57;10.10;;;23.70;99.90;;;;;;5004505;28;20470;-74
2021/07/20 10:16:10;;;;;;;13.90;11.27;;;23.70;99.90;;;;;;5023915;28;20431;-74
2021/07/20 10:19:01;;;;;;;16.20;12.33;;;23.70;99.90;;;;;;5022852;28;20950;-73
2021/07/20 10:21:30;;;;;;;15.17;11.13;;;23.70;99.90;;;;;;5024817;28;20439;-73
2021/07/20 10:24:02;;;;;;;17.83;12.00;;;23.80;99.90;;;;;;5022665;28;20987;-73
2021/07/20 10:26:35;;;;;;;17.53;10.97;;;23.80;99.90;;;;;;5024337;28;20485;-73
2021/07/20 10:29:23;;;;;;;14.83;10.63;;;23.80;99.90;;;;;;5020929;28;20431;-73
2021/07/20 10:32:12;;;;;;;21.80;13.93;;;23.80;99.90;;;;;;5024549;28;20804;-73
2021/07/20 10:34:43;;;;;;;15.07;11.50;;;24.00;99.90;;;;;;5023994;28;21040;-73
2021/07/20 10:37:16;;;;;;;15.90;12.07;;;24.20;99.90;;;;;;5022044;28;20509;-74
2021/07/20 10:39:49;;;;;;;19.97;13.03;;;24.40;99.90;;;;;;5024515;28;20846;-73
2021/07/20 10:42:39;;;;;;;16.17;11.70;;;24.40;99.90;;;;;;5023891;28;20454;-73
2021/07/20 10:45:08;;;;;;;16.03;11.20;;;24.50;99.90;;;;;;5021624;28;21011;-74
2021/07/20 10:48:11;;;;;;;14.80;11.73;;;24.60;99.30;;;;;;5023347;28;20494;-73
2021/07/20 10:50:58;;;;;;;16.30;12.93;;;24.60;99.90;;;;;;5023836;28;20447;-73
2021/07/20 10:53:54;;;;;;;19.43;12.80;;;24.70;99.20;;;;;;5021889;28;20467;-74
2021/07/20 10:56:32;;;;;;;18.13;13.00;;;24.70;98.90;;;;;;5022821;28;20443;-74
2021/07/20 10:59:18;;;;;;;14.47;11.83;;;24.50;98.60;;;;;;5020500;28;20431;-74
2021/07/20 11:02:11;;;;;;;16.77;11.73;;;24.60;98.20;;;;;;5022816;28;20439;-74
2021/07/20 11:04:57;;;;;;;18.63;12.90;;;24.60;97.90;;;;;;5021498;28;20483;-73
2021/07/20 11:08:00;;;;;;;17.80;11.17;;;24.40;97.70;;;;;;5006458;28;20430;-73
2021/07/20 11:10:32;;;;;;;14.53;10.90;;;24.50;98.60;;;;;;5023041;28;20439;-72
2021/07/20 11:13:03;;;;;;;17.97;11.60;;;24.70;98.00;;;;;;5022270;28;20431;-75
2021/07/20 11:15:31;;;;;;;13.23;11.83;;;24.80;97.10;;;;;;5004605;28;20491;-73
2021/07/20 11:18:12;;;;;;;14.87;12.30;;;24.60;97.40;;;;;;5021349;28;20431;-73
2021/07/20 11:20:40;;;;;;;15.67;12.23;;;24.40;97.00;;;;;;5024529;28;20443;-73
2021/07/20 11:23:07;;;;;;;16.03;10.93;;;24.60;97.30;;;;;;5021682;28;20466;-74
2021/07/20 11:25:34;;;;;;;15.57;13.30;;;24.70;98.00;;;;;;5003960;28;20467;-72
2021/07/20 11:28:01;;;;;;;14.17;10.60;;;24.90;96.30;;;;;;5022913;28;20501;-74
2021/07/20 11:30:31;;;;;;;15.10;11.13;;;24.90;96.10;;;;;;5023011;28;20431;-72
2021/07/20 11:33:04;;;;;;;13.70;11.03;;;24.80;96.00;;;;;;5024305;28;20795;-75
2021/07/20 11:35:35;;;;;;;15.37;11.33;;;25.00;96.30;;;;;;5021706;28;20490;-73
2021/07/20 11:38:07;;;;;;;18.83;12.20;;;25.30;96.90;;;;;;5022881;28;20472;-75
2021/07/20 11:40:48;;;;;;;15.90;12.27;;;25.50;95.80;;;;;;5004499;28;20976;-74
2021/07/20 11:43:20;;;;;;;14.90;11.20;;;25.80;96.10;;;;;;5022744;28;21177;-74
2021/07/20 11:45:57;;;;;;;13.63;10.40;;;25.90;94.30;;;;;;5023265;28;20478;-71
2021/07/20 11:48:30;;;;;;;14.23;10.43;;;25.80;93.90;;;;;;5018901;28;20419;-73
2021/07/20 11:51:10;;;;;;;12.43;11.13;;;25.90;93.70;;;;;;5020982;28;20470;-73
2021/07/20 11:53:54;;;;;;;19.03;10.53;;;26.10;92.90;;;;;;5022668;28;20822;-74
2021/07/20 11:56:38;;;;;;;21.07;11.37;;;26.10;92.00;;;;;;5021416;28;20427;-74
2021/07/20 11:59:37;;;;;;;14.23;11.13;;;26.10;91.70;;;;;;5020745;28;20431;-74
2021/07/20 12:02:30;;;;;;;15.70;11.00;;;26.40;91.40;;;;;;5022860;28;20777;-73
2021/07/20 12:05:14;;;;;;;13.40;11.17;;;26.70;90.10;;;;;;5021858;28;21325;-74
2021/07/20 12:08:01;;;;;;;14.90;10.37;;;27.20;90.10;;;;;;5020433;28;20453;-73
2021/07/20 12:10:37;;;;;;;13.40;10.23;;;28.30;87.80;;;;;;5023567;28;20434;-74
2021/07/20 12:13:07;;;;;;;13.00;10.83;;;29.30;85.90;;;;;;5021364;28;20774;-74
2021/07/20 12:15:35;;;;;;;12.17;10.17;;;30.50;79.90;;;;;;5022551;28;20538;-74
2021/07/20 12:18:03;;;;;;;12.60;10.53;;;31.80;76.10;;;;;;5002830;28;20447;-74
2021/07/20 12:20:30;;;;;;;11.50;10.30;;;32.90;69.30;;;;;;5021673;28;20550;-74
2021/07/20 12:22:58;;;;;;;12.90;10.70;;;32.30;68.50;;;;;;5022548;28;20415;-74
2021/07/20 12:25:25;;;;;;;10.97;9.80;;;33.20;66.60;;;;;;5020475;28;20470;-74
2021/07/20 12:27:54;;;;;;;14.20;11.90;;;34.40;64.70;;;;;;5025133;28;20465;-74
2021/07/20 12:30:22;;;;;;;11.73;9.90;;;34.60;59.50;;;;;;5021812;28;20876;-74
2021/07/20 12:32:49;;;;;;;13.10;11.17;;;35.50;59.20;;;;;;5022459;28;20492;-74
2021/07/20 12:35:17;;;;;;;11.80;10.70;;;36.40;56.40;;;;;;5014533;28;20425;-73
2021/07/20 12:37:58;;;;;;;10.70;9.60;;;36.60;54.60;;;;;;5047842;28;20434;-74
2021/07/20 12:40:25;;;;;;;10.80;9.80;;;36.50;53.20;;;;;;5045543;28;20426;-73
2021/07/20 12:42:51;;;;;;;11.77;10.47;;;36.50;52.70;;;;;;5049176;28;20443;-73
2021/07/20 12:45:16;;;;;;;11.70;10.53;;;36.90;51.10;;;;;;5050019;28;20440;-72
2021/07/20 12:47:47;;;;;;;15.10;9.63;;;36.90;49.40;;;;;;5037404;28;20246;-73
2021/07/20 12:50:16;;;;;;;11.70;10.50;;;36.20;49.10;;;;;;5009239;28;20192;-74
2021/07/20 12:52:44;;;;;;;13.13;9.73;;;36.50;50.40;;;;;;5021967;28;20432;-73